Time;durP1;ratioP1;P1;durP2;ratioP2;P2;SDS_P1;SDS_P2;PMS_P1;PMS_P2;Temp;Humidity;BMP_temperature;BMP_pressure;BME280_temperature;BME280_humidity;BME280_pressure;Samples;Min_cycle;Max_cycle;Signal;HPM_P1;HPM_P2
2022/08/20 00:01:42;0.00;0.00;0.62;0.00;0.00;0.62;5.37;4.20;;;28.60;30.60;;;;;;2241562;62;20402;-58
2022/08/20 00:04:27;0.00;0.00;0.62;0.00;0.00;0.62;4.83;3.53;;;28.60;30.00;;;;;;2241900;62;20367;-62
2022/08/20 00:07:13;0.00;0.00;0.62;0.00;0.00;0.62;6.70;4.27;;;28.60;30.00;;;;;;2241954;62;20458;-59
2022/08/20 00:09:59;0.00;0.00;0.62;0.00;0.00;0.62;6.50;4.93;;;28.50;30.00;;;;;;2242043;62;20366;-62
2022/08/20 00:12:47;0.00;0.00;0.62;0.00;0.00;0.62;8.50;5.23;;;28.50;30.10;;;;;;2241929;62;20403;-60
2022/08/20 00:15:35;0.00;0.00;0.62;0.00;0.00;0.62;7.73;5.47;;;28.40;30.10;;;;;;2241282;61;20582;-58
2022/08/20 00:18:21;0.00;0.00;0.62;0.00;0.00;0.62;7.07;5.80;;;28.40;30.20;;;;;;2242203;62;20359;-62
2022/08/20 00:21:10;0.00;0.00;0.62;0.00;0.00;0.62;7.00;5.90;;;28.40;30.20;;;;;;2241663;62;20591;-61
2022/08/20 00:23:57;0.00;0.00;0.62;0.00;0.00;0.62;7.10;6.00;;;28.30;30.30;;;;;;2241453;61;20379;-60
2022/08/20 00:26:42;0.00;0.00;0.62;0.00;0.00;0.62;6.50;5.80;;;28.30;30.30;;;;;;2241466;61;20402;-60
2022/08/20 00:29:28;0.00;0.00;0.62;0.00;0.00;0.62;7.33;5.67;;;28.30;30.30;;;;;;2241532;62;20362;-61
2022/08/20 00:32:13;0.00;0.00;0.62;0.00;0.00;0.62;7.40;5.80;;;28.30;30.40;;;;;;2242036;62;20407;-62
2022/08/20 00:34:57;0.00;0.00;0.62;0.00;0.00;0.62;7.00;5.10;;;28.30;30.40;;;;;;2241453;61;20721;-59
2022/08/20 00:37:42;0.00;0.00;0.62;0.00;0.00;0.62;5.53;4.60;;;28.20;30.50;;;;;;2241306;62;20378;-59
2022/08/20 00:40:33;0.00;0.00;0.62;0.00;0.00;0.62;4.70;4.20;;;28.20;30.50;;;;;;2242104;62;20422;-61
2022/08/20 00:43:34;0.00;0.00;0.62;0.00;0.00;0.62;3.87;3.47;;;28.20;30.60;;;;;;2241689;62;20363;-57
2022/08/20 00:46:24;0.00;0.00;0.62;0.00;0.00;0.62;4.00;3.47;;;28.20;30.70;;;;;;2241185;61;20445;-57
2022/08/20 00:49:15;0.00;0.00;0.62;0.00;0.00;0.62;4.40;4.00;;;28.20;30.60;;;;;;2241604;62;20656;-58
2022/08/20 00:52:06;0.00;0.00;0.62;0.00;0.00;0.62;6.50;4.30;;;28.20;30.50;;;;;;2241444;62;20783;-58
2022/08/20 00:54:56;0.00;0.00;0.62;0.00;0.00;0.62;5.60;4.47;;;28.20;30.20;;;;;;2241946;62;20370;-60
2022/08/20 00:57:47;0.00;0.00;0.62;0.00;0.00;0.62;5.60;3.73;;;28.10;29.90;;;;;;2237594;62;20616;-58
2022/08/20 01:00:38;0.00;0.00;0.62;0.00;0.00;0.62;5.80;5.13;;;28.10;29.90;;;;;;2237301;62;20382;-60
2022/08/20 01:03:23;0.00;0.00;0.62;0.00;0.00;0.62;5.33;4.70;;;28.00;29.80;;;;;;2237948;62;20408;-60
2022/08/20 01:06:10;0.00;0.00;0.62;0.00;0.00;0.62;5.23;4.30;;;27.90;29.80;;;;;;2240103;61;20457;-60
2022/08/20 01:08:55;0.00;0.00;0.62;0.00;0.00;0.62;4.60;4.20;;;27.80;29.80;;;;;;2241178;62;20439;-59
2022/08/20 01:11:40;0.00;0.00;0.62;0.00;0.00;0.62;3.80;3.50;;;27.80;29.90;;;;;;2241608;62;20367;-57
2022/08/20 01:17:25;0.00;0.00;0.62;0.00;0.00;0.62;4.03;2.93;;;27.60;29.80;;;;;;2484471;54;20378;-62
2022/08/20 01:20:17;0.00;0.00;0.62;0.00;0.00;0.62;3.40;3.10;;;27.50;29.90;;;;;;2241613;62;20434;-60
2022/08/20 01:23:26;0.00;0.00;0.62;0.00;0.00;0.62;3.30;3.00;;;27.50;30.00;;;;;;2241229;62;20766;-60
2022/08/20 01:26:17;0.00;0.00;0.62;0.00;0.00;0.62;5.60;2.90;;;27.50;30.20;;;;;;2241414;62;20438;-62
2022/08/20 01:29:09;0.00;0.00;0.62;0.00;0.00;0.62;3.67;2.80;;;27.50;30.20;;;;;;2241200;62;20363;-60
2022/08/20 01:32:00;0.00;0.00;0.62;0.00;0.00;0.62;3.50;3.20;;;27.50;30.30;;;;;;2242028;62;20394;-58
2022/08/20 01:34:44;0.00;0.00;0.62;0.00;0.00;0.62;2.90;2.60;;;27.60;30.40;;;;;;2241586;62;20366;-59
2022/08/20 01:37:29;0.00;0.00;0.62;0.00;0.00;0.62;3.47;2.80;;;27.60;30.40;;;;;;2545124;46;20648;-61
2022/08/20 01:40:22;0.00;0.00;0.62;0.00;0.00;0.62;3.00;2.50;;;27.60;30.40;;;;;;2238566;62;20366;-60
2022/08/20 01:43:09;0.00;0.00;0.62;0.00;0.00;0.62;3.00;2.67;;;27.70;30.50;;;;;;2238724;62;20751;-61
2022/08/20 01:45:54;0.00;0.00;0.62;0.00;0.00;0.62;2.90;2.43;;;27.70;30.40;;;;;;2239469;61;20482;-62
2022/08/20 01:48:43;0.00;0.00;0.62;0.00;0.00;0.62;3.20;2.90;;;27.70;30.30;;;;;;2242115;62;20773;-61
2022/08/20 01:51:29;0.00;0.00;0.62;0.00;0.00;0.62;3.10;2.80;;;27.80;30.30;;;;;;2241851;62;20370;-60
2022/08/20 01:54:15;0.00;0.00;0.62;0.00;0.00;0.62;2.57;2.20;;;27.80;30.20;;;;;;2242511;62;20536;-61
2022/08/20 01:57:05;0.00;0.00;0.62;0.00;0.00;0.62;2.60;2.40;;;27.80;30.20;;;;;;2243323;61;20485;-61
2022/08/20 01:59:52;0.00;0.00;0.62;0.00;0.00;0.62;3.67;2.40;;;27.80;30.10;;;;;;2245657;61;20721;-58
2022/08/20 02:02:36;0.00;0.00;0.62;0.00;0.00;0.62;4.10;2.20;;;27.80;30.10;;;;;;2243374;61;20440;-60
2022/08/20 02:05:21;0.00;0.00;0.62;0.00;0.00;0.62;2.73;2.47;;;27.90;30.20;;;;;;2242931;61;20737;-57
2022/08/20 02:08:06;0.00;0.00;0.62;0.00;0.00;0.62;2.40;2.07;;;27.90;30.20;;;;;;2233749;62;20448;-60
2022/08/20 02:10:52;0.00;0.00;0.62;0.00;0.00;0.62;2.50;2.30;;;27.90;30.20;;;;;;2234319;62;20591;-59
2022/08/20 02:13:39;0.00;0.00;0.62;0.00;0.00;0.62;2.80;2.40;;;28.00;30.20;;;;;;2233642;62;20393;-59
2022/08/20 02:16:29;0.00;0.00;0.62;0.00;0.00;0.62;3.70;2.37;;;28.00;30.20;;;;;;2237183;62;20805;-60
2022/08/20 02:19:20;0.00;0.00;0.62;0.00;0.00;0.62;2.00;1.70;;;28.00;30.20;;;;;;2238153;62;20481;-59
2022/08/20 02:22:28;0.00;0.00;0.62;0.00;0.00;0.62;2.40;2.20;;;28.00;30.10;;;;;;2237691;62;20384;-60
2022/08/20 02:25:14;0.00;0.00;0.62;0.00;0.00;0.62;2.30;1.73;;;28.10;30.20;;;;;;2238048;62;20569;-59
2022/08/20 02:28:03;0.00;0.00;0.62;0.00;0.00;0.62;3.67;2.30;;;28.10;30.20;;;;;;2238407;62;20463;-58
2022/08/20 02:30:52;0.00;0.00;0.62;0.00;0.00;0.62;2.53;1.70;;;28.10;30.20;;;;;;2238576;62;20367;-59
2022/08/20 02:33:38;0.00;0.00;0.62;0.00;0.00;0.62;2.73;2.40;;;28.20;30.30;;;;;;2238138;62;20372;-61
2022/08/20 02:36:26;0.00;0.00;0.62;0.00;0.00;0.62;1.90;1.63;;;28.20;30.20;;;;;;2237108;62;20614;-60
2022/08/20 02:39:12;0.00;0.00;0.62;0.00;0.00;0.62;2.53;1.97;;;28.30;30.30;;;;;;2238505;62;20407;-60
2022/08/20 02:41:57;0.00;0.00;0.62;0.00;0.00;0.62;2.17;1.73;;;28.30;30.20;;;;;;2238110;62;20367;-58
2022/08/20 02:44:42;0.00;0.00;0.62;0.00;0.00;0.62;2.33;1.67;;;28.30;30.20;;;;;;2237748;62;20364;-60
2022/08/20 02:47:27;0.00;0.00;0.62;0.00;0.00;0.62;2.27;2.00;;;28.30;30.20;;;;;;2656460;46;20412;-59
2022/08/20 02:50:16;0.00;0.00;0.62;0.00;0.00;0.62;3.00;2.50;;;28.40;30.20;;;;;;2234467;62;20425;-60
2022/08/20 02:53:01;0.00;0.00;0.62;0.00;0.00;0.62;4.00;2.03;;;28.40;30.20;;;;;;2234493;62;20368;-60
2022/08/20 02:55:46;0.00;0.00;0.62;0.00;0.00;0.62;2.73;2.43;;;28.40;30.20;;;;;;2235680;62;20415;-59
2022/08/20 02:58:32;0.00;0.00;0.62;0.00;0.00;0.62;4.10;2.87;;;28.40;30.10;;;;;;2237651;62;20364;-58
2022/08/20 03:01:17;0.00;0.00;0.62;0.00;0.00;0.62;2.60;1.97;;;28.40;30.10;;;;;;2238470;62;20370;-60
2022/08/20 03:04:03;0.00;0.00;0.62;0.00;0.00;0.62;5.70;3.87;;;28.40;30.00;;;;;;2238148;62;20436;-61
2022/08/20 03:06:49;0.00;0.00;0.62;0.00;0.00;0.62;3.00;2.53;;;28.50;30.00;;;;;;2236617;62;20405;-59
2022/08/20 03:09:35;0.00;0.00;0.62;0.00;0.00;0.62;3.13;2.60;;;28.40;30.00;;;;;;2241894;62;20742;-59
2022/08/20 03:12:20;0.00;0.00;0.62;0.00;0.00;0.62;3.43;2.13;;;28.40;30.00;;;;;;2242359;62;20398;-60
2022/08/20 03:15:07;0.00;0.00;0.62;0.00;0.00;0.62;3.00;2.63;;;28.40;30.00;;;;;;2239487;61;20407;-61
2022/08/20 03:17:52;0.00;0.00;0.62;0.00;0.00;0.62;2.90;2.50;;;28.40;30.00;;;;;;2245792;61;20421;-59
2022/08/20 03:20:38;0.00;0.00;0.62;0.00;0.00;0.62;5.23;2.83;;;28.40;30.00;;;;;;2245608;61;20361;-59
2022/08/20 03:23:24;0.00;0.00;0.62;0.00;0.00;0.62;3.90;2.97;;;28.40;30.00;;;;;;2246314;61;20409;-59
2022/08/20 03:26:12;0.00;0.00;0.62;0.00;0.00;0.62;3.20;2.40;;;28.40;29.90;;;;;;2245760;61;20498;-61
2022/08/20 03:28:57;0.00;0.00;0.62;0.00;0.00;0.62;6.07;2.60;;;28.30;29.90;;;;;;2245450;61;20405;-60
2022/08/20 03:31:41;0.00;0.00;0.62;0.00;0.00;0.62;5.63;3.03;;;28.30;30.00;;;;;;2245752;61;20369;-60
2022/08/20 03:34:26;0.00;0.00;0.62;0.00;0.00;0.62;2.97;2.67;;;28.30;30.60;;;;;;2246273;61;20365;-61
2022/08/20 03:37:11;0.00;0.00;0.62;0.00;0.00;0.62;2.87;2.67;;;28.30;30.00;;;;;;2245875;61;20397;-60
2022/08/20 03:39:57;0.00;0.00;0.62;0.00;0.00;0.62;2.70;2.20;;;28.30;30.00;;;;;;2245729;61;20397;-59
2022/08/20 03:42:43;0.00;0.00;0.62;0.00;0.00;0.62;2.60;2.33;;;28.30;30.00;;;;;;2245562;61;20401;-60
2022/08/20 03:45:28;0.00;0.00;0.62;0.00;0.00;0.62;4.20;2.50;;;28.40;30.10;;;;;;2245953;61;20497;-58
2022/08/20 03:48:19;0.00;0.00;0.62;0.00;0.00;0.62;2.90;2.07;;;28.40;30.10;;;;;;2245805;61;20437;-61
2022/08/20 03:51:04;0.00;0.00;0.62;0.00;0.00;0.62;1.93;1.73;;;28.40;30.20;;;;;;2245506;61;20365;-59
2022/08/20 03:53:49;0.00;0.00;0.62;0.00;0.00;0.62;2.40;2.20;;;28.40;30.10;;;;;;2245268;61;20360;-59
2022/08/20 03:56:35;0.00;0.00;0.62;0.00;0.00;0.62;2.70;2.23;;;28.50;30.20;;;;;;2246144;61;20502;-60
2022/08/20 03:59:20;0.00;0.00;0.62;0.00;0.00;0.62;2.50;2.30;;;28.50;30.10;;;;;;2248035;61;20617;-61
2022/08/20 04:02:05;0.00;0.00;0.62;0.00;0.00;0.62;4.13;2.47;;;28.50;30.10;;;;;;2245708;61;20361;-61
2022/08/20 04:04:50;0.00;0.00;0.62;0.00;0.00;0.62;2.30;2.10;;;28.50;30.10;;;;;;2245534;61;20358;-59
2022/08/20 04:07:36;0.00;0.00;0.62;0.00;0.00;0.62;2.40;2.20;;;28.50;30.10;;;;;;2289042;58;20421;-58
2022/08/20 04:10:21;0.00;0.00;0.62;0.00;0.00;0.62;2.63;2.17;;;28.60;30.20;;;;;;2241752;62;20366;-59
2022/08/20 04:13:08;0.00;0.00;0.62;0.00;0.00;0.62;2.87;2.20;;;28.60;30.20;;;;;;2241333;62;20743;-60
2022/08/20 04:15:56;0.00;0.00;0.62;0.00;0.00;0.62;2.40;2.17;;;28.60;30.10;;;;;;2240107;62;20390;-60
2022/08/20 04:18:41;0.00;0.00;0.62;0.00;0.00;0.62;3.07;2.47;;;28.60;30.10;;;;;;2238137;62;20432;-58
2022/08/20 04:21:25;0.00;0.00;0.62;0.00;0.00;0.62;2.70;2.40;;;28.60;30.10;;;;;;2237451;62;20380;-60
2022/08/20 04:24:11;0.00;0.00;0.62;0.00;0.00;0.62;3.20;2.90;;;28.60;30.10;;;;;;2237888;62;20616;-60
2022/08/20 04:26:57;0.00;0.00;0.62;0.00;0.00;0.62;3.40;2.40;;;28.60;30.10;;;;;;2233655;62;20400;-60
2022/08/20 04:29:44;0.00;0.00;0.62;0.00;0.00;0.62;3.00;2.40;;;28.60;30.10;;;;;;2234083;62;20416;-60
2022/08/20 04:32:29;0.00;0.00;0.62;0.00;0.00;0.62;2.67;2.23;;;28.70;30.10;;;;;;2233959;62;20416;-60
2022/08/20 04:35:16;0.00;0.00;0.62;0.00;0.00;0.62;3.43;2.40;;;28.70;30.10;;;;;;2233177;62;20380;-60
2022/08/20 04:38:05;0.00;0.00;0.62;0.00;0.00;0.62;2.80;2.53;;;28.70;30.20;;;;;;2234163;62;20388;-59
2022/08/20 04:40:56;0.00;0.00;0.62;0.00;0.00;0.62;3.27;2.80;;;28.70;30.20;;;;;;2234240;62;20385;-60
2022/08/20 04:43:41;0.00;0.00;0.62;0.00;0.00;0.62;2.90;2.67;;;28.70;30.10;;;;;;2233573;62;20372;-59
2022/08/20 04:46:27;0.00;0.00;0.62;0.00;0.00;0.62;3.40;3.10;;;28.70;30.20;;;;;;2236395;62;20395;-60
2022/08/20 04:49:12;0.00;0.00;0.62;0.00;0.00;0.62;3.67;3.37;;;28.70;30.20;;;;;;2237214;62;20364;-61
2022/08/20 04:51:58;0.00;0.00;0.62;0.00;0.00;0.62;4.07;3.43;;;28.80;30.30;;;;;;2238011;62;20715;-59
2022/08/20 04:54:43;0.00;0.00;0.62;0.00;0.00;0.62;3.90;3.37;;;28.70;30.30;;;;;;2237761;62;20420;-61
2022/08/20 04:57:28;0.00;0.00;0.62;0.00;0.00;0.62;5.80;3.80;;;28.70;30.40;;;;;;2552976;46;20592;-60
2022/08/20 05:00:16;0.00;0.00;0.62;0.00;0.00;0.62;3.67;3.37;;;28.70;30.40;;;;;;2234048;62;20368;-60
2022/08/20 05:03:03;0.00;0.00;0.62;0.00;0.00;0.62;4.27;3.87;;;28.70;30.50;;;;;;2234172;62;20520;-60
2022/08/20 05:05:49;0.00;0.00;0.62;0.00;0.00;0.62;4.13;3.73;;;28.70;30.50;;;;;;2233890;62;20747;-61
2022/08/20 05:08:35;0.00;0.00;0.62;0.00;0.00;0.62;5.40;4.90;;;28.70;31.30;;;;;;2237574;62;20407;-58
2022/08/20 05:11:20;0.00;0.00;0.62;0.00;0.00;0.62;5.97;3.97;;;28.70;31.00;;;;;;2237124;62;20411;-61
2022/08/20 05:14:07;0.00;0.00;0.62;0.00;0.00;0.62;4.70;4.30;;;28.70;31.10;;;;;;2238019;62;20370;-61
2022/08/20 05:16:56;0.00;0.00;0.62;0.00;0.00;0.62;5.23;4.73;;;28.70;31.20;;;;;;2240838;62;20401;-61
2022/08/20 05:19:42;0.00;0.00;0.62;0.00;0.00;0.62;4.57;4.17;;;28.70;31.30;;;;;;2241166;62;20398;-61
2022/08/20 05:22:27;0.00;0.00;0.62;0.00;0.00;0.62;4.87;4.47;;;28.70;31.40;;;;;;2241968;62;20596;-61
2022/08/20 05:25:12;0.00;0.00;0.62;0.00;0.00;0.62;4.57;4.17;;;28.70;31.50;;;;;;2244031;61;20382;-60
2022/08/20 05:27:59;0.00;0.00;0.62;0.00;0.00;0.62;7.47;5.50;;;28.70;31.90;;;;;;2241276;62;20434;-61
2022/08/20 05:30:47;0.00;0.00;0.62;0.00;0.00;0.62;4.73;4.33;;;28.70;32.30;;;;;;2241512;62;20438;-61
2022/08/20 05:33:32;0.00;0.00;0.62;0.00;0.00;0.62;6.10;5.50;;;28.60;32.50;;;;;;2241010;62;20757;-60
2022/08/20 05:36:20;0.00;0.00;0.62;0.00;0.00;0.62;5.60;5.10;;;28.60;32.50;;;;;;2241805;62;20434;-61
2022/08/20 05:39:05;0.00;0.00;0.62;0.00;0.00;0.62;5.47;4.97;;;28.60;32.70;;;;;;2241415;62;20386;-60
2022/08/20 05:41:50;0.00;0.00;0.62;0.00;0.00;0.62;5.33;4.83;;;28.50;33.00;;;;;;2241185;62;20389;-61
2022/08/20 05:44:36;0.00;0.00;0.62;0.00;0.00;0.62;4.57;4.17;;;28.50;33.10;;;;;;2241892;62;20730;-60
2022/08/20 05:47:26;0.00;0.00;0.62;0.00;0.00;0.62;4.40;4.00;;;28.50;33.30;;;;;;2745785;46;20787;-61
2022/08/20 05:50:13;0.00;0.00;0.62;0.00;0.00;0.62;4.40;4.00;;;28.40;33.40;;;;;;2237188;62;20359;-60
2022/08/20 05:53:00;0.00;0.00;0.62;0.00;0.00;0.62;4.60;4.20;;;28.40;33.40;;;;;;2237517;62;20392;-58
2022/08/20 05:55:45;0.00;0.00;0.62;0.00;0.00;0.62;3.47;3.17;;;28.40;33.50;;;;;;2238504;61;20378;-60
2022/08/20 05:58:31;0.00;0.00;0.62;0.00;0.00;0.62;5.37;4.43;;;28.30;34.20;;;;;;2241744;62;20362;-59
2022/08/20 06:01:16;0.00;0.00;0.62;0.00;0.00;0.62;3.87;3.53;;;28.30;33.60;;;;;;2241349;62;20399;-61
2022/08/20 06:07:06;0.00;0.00;0.62;0.00;0.00;0.62;3.97;3.57;;;28.20;33.70;;;;;;2241107;62;20418;-62
2022/08/20 06:09:52;0.00;0.00;0.62;0.00;0.00;0.62;4.30;3.90;;;28.20;33.60;;;;;;2241754;62;20755;-66
2022/08/20 06:12:37;0.00;0.00;0.62;0.00;0.00;0.62;3.60;3.30;;;28.20;33.80;;;;;;2241677;62;20371;-63
2022/08/20 06:15:22;0.00;0.00;0.62;0.00;0.00;0.62;3.93;3.53;;;28.30;33.90;;;;;;2241274;61;20536;-63
2022/08/20 06:18:08;0.00;0.00;0.62;0.00;0.00;0.62;4.07;3.10;;;28.20;33.70;;;;;;2241109;62;20402;-63
2022/08/20 06:20:53;0.00;0.00;0.62;0.00;0.00;0.62;3.70;3.40;;;28.20;33.60;;;;;;2241760;62;20451;-64
2022/08/20 06:23:38;0.00;0.00;0.62;0.00;0.00;0.62;3.37;2.83;;;28.30;33.50;;;;;;2244097;61;20414;-63
2022/08/20 06:26:24;0.00;0.00;0.62;0.00;0.00;0.62;3.87;3.40;;;28.30;33.50;;;;;;2241597;61;20394;-65
2022/08/20 06:29:09;0.00;0.00;0.62;0.00;0.00;0.62;4.97;3.13;;;28.30;33.50;;;;;;2242186;62;20398;-64
2022/08/20 06:31:54;0.00;0.00;0.62;0.00;0.00;0.62;5.63;4.20;;;28.40;33.60;;;;;;2242268;62;20402;-63
2022/08/20 06:34:40;0.00;0.00;0.62;0.00;0.00;0.62;4.03;3.63;;;28.40;33.80;;;;;;2241840;62;20636;-65
2022/08/20 06:37:27;0.00;0.00;0.62;0.00;0.00;0.62;3.70;3.40;;;28.40;33.80;;;;;;2468835;54;20458;-63
2022/08/20 06:40:16;0.00;0.00;0.62;0.00;0.00;0.62;3.37;3.07;;;28.40;33.80;;;;;;2237583;62;20436;-65
2022/08/20 06:43:03;0.00;0.00;0.62;0.00;0.00;0.62;4.10;3.70;;;28.40;33.70;;;;;;2238486;62;20403;-65
2022/08/20 06:45:48;0.00;0.00;0.62;0.00;0.00;0.62;4.00;3.60;;;28.50;33.90;;;;;;2239586;62;20386;-62
2022/08/20 06:48:33;0.00;0.00;0.62;0.00;0.00;0.62;4.27;3.70;;;28.40;33.80;;;;;;2241468;62;20386;-64
2022/08/20 06:51:19;0.00;0.00;0.62;0.00;0.00;0.62;3.37;3.07;;;28.50;33.90;;;;;;2242461;62;20406;-65
2022/08/20 06:54:04;0.00;0.00;0.62;0.00;0.00;0.62;3.83;3.53;;;28.50;34.60;;;;;;2242455;62;20783;-60
2022/08/20 06:56:50;0.00;0.00;0.62;0.00;0.00;0.62;4.57;3.70;;;28.60;33.90;;;;;;2243943;61;20394;-64
2022/08/20 06:59:37;0.00;0.00;0.62;0.00;0.00;0.62;4.20;3.80;;;28.60;33.80;;;;;;2241987;61;20374;-65
2022/08/20 07:02:23;0.00;0.00;0.62;0.00;0.00;0.62;4.20;3.80;;;28.60;33.90;;;;;;2241673;62;20587;-63
2022/08/20 07:05:09;0.00;0.00;0.62;0.00;0.00;0.62;3.70;3.40;;;28.60;33.90;;;;;;2242673;61;20367;-64
2022/08/20 07:07:54;0.00;0.00;0.62;0.00;0.00;0.62;4.80;4.30;;;28.60;34.50;;;;;;2246056;61;20389;-65
2022/08/20 07:10:41;0.00;0.00;0.62;0.00;0.00;0.62;5.53;5.03;;;28.70;34.00;;;;;;2242502;61;20439;-63
2022/08/20 07:13:27;0.00;0.00;0.62;0.00;0.00;0.62;6.50;5.60;;;28.70;34.20;;;;;;2242286;62;20358;-63
2022/08/20 07:16:13;0.00;0.00;0.62;0.00;0.00;0.62;6.17;5.27;;;28.70;34.40;;;;;;2242298;62;20382;-63
2022/08/20 07:18:58;0.00;0.00;0.62;0.00;0.00;0.62;5.10;4.60;;;28.70;34.70;;;;;;2241673;62;20361;-62
2022/08/20 07:21:43;0.00;0.00;0.62;0.00;0.00;0.62;4.87;4.47;;;28.70;34.70;;;;;;2241987;62;20367;-63
2022/08/20 07:24:27;0.00;0.00;0.62;0.00;0.00;0.62;5.43;4.60;;;28.70;34.60;;;;;;2241391;61;20416;-63
2022/08/20 07:27:12;0.00;0.00;0.62;0.00;0.00;0.62;4.60;4.20;;;28.70;34.60;;;;;;2242245;62;20464;-67
2022/08/20 07:33:01;0.00;0.00;0.62;0.00;0.00;0.62;5.27;4.77;;;28.70;34.60;;;;;;2241602;62;20362;-68
2022/08/20 07:35:47;0.00;0.00;0.62;0.00;0.00;0.62;4.40;4.00;;;28.70;34.60;;;;;;2241948;61;20362;-67
2022/08/20 07:38:33;0.00;0.00;0.62;0.00;0.00;0.62;4.27;3.90;;;28.80;34.60;;;;;;2242095;62;20351;-69
2022/08/20 07:41:19;0.00;0.00;0.62;0.00;0.00;0.62;4.30;3.93;;;28.80;34.50;;;;;;2241986;62;20362;-64
2022/08/20 07:44:04;0.00;0.00;0.62;0.00;0.00;0.62;3.83;3.50;;;28.80;34.50;;;;;;2242032;62;20585;-64
2022/08/20 07:46:49;0.00;0.00;0.62;0.00;0.00;0.62;5.20;3.83;;;28.80;34.40;;;;;;2240846;62;20386;-64
2022/08/20 07:49:38;0.00;0.00;0.62;0.00;0.00;0.62;4.90;4.40;;;28.90;34.50;;;;;;2242243;62;20592;-64
2022/08/20 07:52:23;0.00;0.00;0.62;0.00;0.00;0.62;5.20;4.70;;;28.90;34.50;;;;;;2241919;62;20690;-66
2022/08/20 07:55:11;0.00;0.00;0.62;0.00;0.00;0.62;4.30;3.70;;;28.90;34.50;;;;;;2241360;62;20435;-68
2022/08/20 07:58:05;0.00;0.00;0.62;0.00;0.00;0.62;4.73;4.30;;;28.90;34.60;;;;;;2242078;62;20774;-67
2022/08/20 08:00:50;0.00;0.00;0.62;0.00;0.00;0.62;4.43;4.03;;;28.90;34.50;;;;;;2241994;61;20370;-66
2022/08/20 08:03:36;0.00;0.00;0.62;0.00;0.00;0.62;6.70;3.83;;;28.90;34.40;;;;;;2241539;62;20685;-63
2022/08/20 08:06:24;0.00;0.00;0.62;0.00;0.00;0.62;5.93;4.70;;;28.90;34.40;;;;;;2241719;62;20453;-64
2022/08/20 08:09:12;0.00;0.00;0.62;0.00;0.00;0.62;4.73;4.33;;;28.90;34.30;;;;;;2241532;62;20391;-64
2022/08/20 08:11:59;0.00;0.00;0.62;0.00;0.00;0.62;4.40;4.00;;;28.90;34.30;;;;;;2242129;62;20579;-66
2022/08/20 08:14:46;0.00;0.00;0.62;0.00;0.00;0.62;5.60;4.87;;;28.90;34.40;;;;;;2241860;62;20751;-65
2022/08/20 08:17:32;0.00;0.00;0.62;0.00;0.00;0.62;5.37;4.87;;;28.90;34.30;;;;;;2468342;54;20591;-63
2022/08/20 08:20:18;0.00;0.00;0.62;0.00;0.00;0.62;5.90;5.30;;;28.90;34.30;;;;;;2237703;62;20432;-62
2022/08/20 08:23:06;0.00;0.00;0.62;0.00;0.00;0.62;4.53;4.13;;;28.90;34.30;;;;;;2238161;62;20367;-64
2022/08/20 08:25:51;0.00;0.00;0.62;0.00;0.00;0.62;4.60;4.20;;;28.90;34.30;;;;;;2239574;61;20438;-64
2022/08/20 08:28:36;0.00;0.00;0.62;0.00;0.00;0.62;3.87;3.47;;;28.90;34.30;;;;;;2241640;62;20390;-64
2022/08/20 08:31:21;0.00;0.00;0.62;0.00;0.00;0.62;5.57;5.07;;;28.90;34.30;;;;;;2241394;62;20444;-63
2022/08/20 08:34:06;0.00;0.00;0.62;0.00;0.00;0.62;6.03;5.53;;;29.00;34.40;;;;;;2242026;62;20358;-65
2022/08/20 08:36:51;0.00;0.00;0.62;0.00;0.00;0.62;4.30;3.90;;;29.00;34.50;;;;;;2241182;62;20429;-62
2022/08/20 08:39:37;0.00;0.00;0.62;0.00;0.00;0.62;4.40;3.90;;;29.00;34.50;;;;;;2241287;62;20390;-63
2022/08/20 08:42:33;0.00;0.00;0.62;0.00;0.00;0.62;5.50;4.40;;;29.00;34.50;;;;;;2241891;62;20407;-61
2022/08/20 08:45:19;0.00;0.00;0.62;0.00;0.00;0.62;5.60;4.50;;;29.00;34.50;;;;;;2241627;62;20367;-62
2022/08/20 08:48:04;0.00;0.00;0.62;0.00;0.00;0.62;4.67;3.90;;;29.00;34.50;;;;;;2241949;62;20431;-62
2022/08/20 08:50:52;0.00;0.00;0.62;0.00;0.00;0.62;4.00;3.57;;;29.00;34.50;;;;;;2241717;62;20390;-65
2022/08/20 08:53:42;0.00;0.00;0.62;0.00;0.00;0.62;4.07;3.67;;;29.00;34.40;;;;;;2241185;62;20358;-63
2022/08/20 08:56:30;0.00;0.00;0.62;0.00;0.00;0.62;3.80;3.50;;;29.00;34.40;;;;;;2241896;61;20405;-64
2022/08/20 08:59:15;0.00;0.00;0.62;0.00;0.00;0.62;6.97;4.10;;;29.00;34.30;;;;;;2241625;62;20607;-65
2022/08/20 09:02:01;0.00;0.00;0.62;0.00;0.00;0.62;4.17;3.43;;;29.10;34.30;;;;;;2468086;54;20363;-64
2022/08/20 09:04:46;0.00;0.00;0.62;0.00;0.00;0.62;4.23;3.83;;;29.10;34.20;;;;;;2237864;62;20364;-64
2022/08/20 09:07:33;0.00;0.00;0.62;0.00;0.00;0.62;3.17;2.87;;;29.10;34.10;;;;;;2308246;54;20600;-64
2022/08/20 09:10:18;0.00;0.00;0.62;0.00;0.00;0.62;4.13;3.53;;;29.10;34.10;;;;;;2237912;62;20363;-63
2022/08/20 09:13:05;0.00;0.00;0.62;0.00;0.00;0.62;3.90;3.57;;;29.10;34.00;;;;;;2237691;62;20378;-62
2022/08/20 09:15:49;0.00;0.00;0.62;0.00;0.00;0.62;3.57;3.27;;;29.10;34.00;;;;;;2238660;61;20860;-64
2022/08/20 09:18:34;0.00;0.00;0.62;0.00;0.00;0.62;5.80;4.30;;;29.10;34.00;;;;;;2241994;62;20405;-62
2022/08/20 09:21:19;0.00;0.00;0.62;0.00;0.00;0.62;4.20;3.70;;;29.20;34.00;;;;;;2241612;62;20358;-65
2022/08/20 09:24:04;0.00;0.00;0.62;0.00;0.00;0.62;3.80;3.40;;;29.20;33.90;;;;;;2241299;62;20370;-61
2022/08/20 09:26:49;0.00;0.00;0.62;0.00;0.00;0.62;3.73;3.43;;;29.20;33.90;;;;;;2241534;62;20720;-61
2022/08/20 09:29:37;0.00;0.00;0.62;0.00;0.00;0.62;3.67;3.37;;;29.20;33.90;;;;;;2241924;62;20390;-59
2022/08/20 09:32:23;0.00;0.00;0.62;0.00;0.00;0.62;3.77;3.30;;;29.20;33.90;;;;;;2241670;62;20436;-61
2022/08/20 09:35:10;0.00;0.00;0.62;0.00;0.00;0.62;5.03;4.63;;;29.20;33.90;;;;;;2241416;61;20366;-64
2022/08/20 09:37:55;0.00;0.00;0.62;0.00;0.00;0.62;4.40;4.00;;;29.20;34.00;;;;;;2241219;62;20378;-63
2022/08/20 09:40:40;0.00;0.00;0.62;0.00;0.00;0.62;4.00;3.23;;;29.20;33.90;;;;;;2241964;62;20357;-65
2022/08/20 09:43:25;0.00;0.00;0.62;0.00;0.00;0.62;4.80;3.33;;;29.20;34.00;;;;;;2241553;62;20358;-60
2022/08/20 09:46:11;0.00;0.00;0.62;0.00;0.00;0.62;3.90;3.60;;;29.20;34.00;;;;;;2240970;61;20627;-62
2022/08/20 09:48:55;0.00;0.00;0.62;0.00;0.00;0.62;4.10;3.67;;;29.20;33.90;;;;;;2241750;62;20390;-62
2022/08/20 09:51:40;0.00;0.00;0.62;0.00;0.00;0.62;5.97;3.60;;;29.20;33.90;;;;;;2241904;62;20584;-64
2022/08/20 09:54:28;0.00;0.00;0.62;0.00;0.00;0.62;3.80;3.50;;;29.20;33.90;;;;;;2241311;62;20362;-62
2022/08/20 09:57:15;0.00;0.00;0.62;0.00;0.00;0.62;3.80;3.50;;;29.20;33.90;;;;;;2241619;62;20430;-63
2022/08/20 10:00:07;0.00;0.00;0.62;0.00;0.00;0.62;4.60;3.70;;;29.30;33.90;;;;;;2241743;62;20358;-61
2022/08/20 10:02:59;0.00;0.00;0.62;0.00;0.00;0.62;4.10;3.10;;;29.30;34.00;;;;;;2242688;62;20381;-63
2022/08/20 10:05:45;0.00;0.00;0.62;0.00;0.00;0.62;3.63;3.20;;;29.30;33.90;;;;;;2242113;61;20374;-62
2022/08/20 10:08:30;0.00;0.00;0.62;0.00;0.00;0.62;4.40;3.87;;;29.30;33.80;;;;;;2241722;62;20430;-63
2022/08/20 10:11:15;0.00;0.00;0.62;0.00;0.00;0.62;4.53;3.97;;;29.30;33.90;;;;;;2242233;62;20765;-63
2022/08/20 10:14:00;0.00;0.00;0.62;0.00;0.00;0.62;3.90;3.50;;;29.30;33.80;;;;;;2242472;62;20369;-65
2022/08/20 10:16:45;0.00;0.00;0.62;0.00;0.00;0.62;5.90;4.50;;;29.30;33.80;;;;;;2242136;62;20499;-62
2022/08/20 10:19:31;0.00;0.00;0.62;0.00;0.00;0.62;4.17;3.87;;;29.30;33.80;;;;;;2242021;62;20363;-61
2022/08/20 10:22:16;0.00;0.00;0.62;0.00;0.00;0.62;4.33;3.93;;;29.40;33.90;;;;;;2241804;62;20362;-63
2022/08/20 10:25:01;0.00;0.00;0.62;0.00;0.00;0.62;5.03;4.07;;;29.40;33.90;;;;;;2242376;61;20576;-64
2022/08/20 10:27:46;0.00;0.00;0.62;0.00;0.00;0.62;5.27;4.77;;;29.40;33.90;;;;;;2242031;62;20435;-62
2022/08/20 10:30:31;0.00;0.00;0.62;0.00;0.00;0.62;6.23;5.60;;;29.40;33.90;;;;;;2241760;62;20627;-64
2022/08/20 10:33:16;0.00;0.00;0.62;0.00;0.00;0.62;6.30;5.70;;;29.40;34.00;;;;;;2242364;62;20362;-63
2022/08/20 10:36:07;0.00;0.00;0.62;0.00;0.00;0.62;5.90;5.30;;;29.40;34.70;;;;;;2242345;62;20776;-63
2022/08/20 10:38:52;0.00;0.00;0.62;0.00;0.00;0.62;7.07;6.47;;;29.40;34.00;;;;;;2241963;62;20362;-64
2022/08/20 10:41:37;0.00;0.00;0.62;0.00;0.00;0.62;6.00;5.40;;;29.40;34.00;;;;;;2242034;62;20758;-62
2022/08/20 10:44:21;0.00;0.00;0.62;0.00;0.00;0.62;6.97;6.30;;;29.40;34.00;;;;;;2241877;62;20358;-61
2022/08/20 10:47:20;0.00;0.00;0.62;0.00;0.00;0.62;7.90;7.20;;;29.40;34.00;;;;;;2242230;62;20769;-65
2022/08/20 10:50:09;0.00;0.00;0.62;0.00;0.00;0.62;7.67;7.03;;;29.40;34.40;;;;;;2242044;62;20714;-64
2022/08/20 10:52:55;0.00;0.00;0.62;0.00;0.00;0.62;9.60;8.80;;;29.40;34.60;;;;;;2241730;62;20391;-60
2022/08/20 10:55:40;0.00;0.00;0.62;0.00;0.00;0.62;9.03;8.13;;;29.40;34.70;;;;;;2241881;61;20730;-65
2022/08/20 10:58:26;0.00;0.00;0.62;0.00;0.00;0.62;8.63;7.93;;;29.40;35.00;;;;;;2242408;62;20415;-64
2022/08/20 11:01:11;0.00;0.00;0.62;0.00;0.00;0.62;8.70;7.80;;;29.40;35.20;;;;;;2241688;62;20362;-62
2022/08/20 11:03:55;0.00;0.00;0.62;0.00;0.00;0.62;6.77;6.27;;;29.40;35.30;;;;;;2242188;62;20347;-64
2022/08/20 11:06:40;0.00;0.00;0.62;0.00;0.00;0.62;6.63;6.03;;;29.40;35.30;;;;;;2241517;61;20648;-61